Time;durP1;ratioP1;P1;durP2;ratioP2;P2;SDS_P1;SDS_P2;PMS_P1;PMS_P2;Temp;Humidity;BMP_temperature;BMP_pressure;BME280_temperature;BME280_humidity;BME280_pressure;Samples;Min_cycle;Max_cycle;Signal;HPM_P1;HPM_P2
2021/01/17 00:01:16;;;;;;;9.40;5.07;;;;;;;-7.41;67.98;93038.63;5113245;28;20416;-42
2021/01/17 00:03:42;;;;;;;11.25;5.68;;;;;;;-7.40;67.77;93043.53;5113379;28;20424;-41
2021/01/17 00:06:14;;;;;;;11.90;4.30;;;;;;;-7.56;67.00;93035.75;5113112;28;20019;-40
2021/01/17 00:08:40;;;;;;;8.52;4.05;;;;;;;-7.32;66.83;93034.00;5113117;28;20034;-40
2021/01/17 00:11:05;;;;;;;6.90;4.00;;;;;;;-7.19;66.42;93034.59;5113093;28;20012;-41
2021/01/17 00:13:31;;;;;;;7.70;4.40;;;;;;;-7.09;66.22;93043.41;5112944;28;20024;-41
2021/01/17 00:15:56;;;;;;;10.10;4.28;;;;;;;-7.20;65.56;93048.47;5113013;28;20022;-43
2021/01/17 00:18:22;;;;;;;9.63;4.30;;;;;;;-7.06;64.70;93045.94;5113077;28;20037;-42
2021/01/17 00:20:50;;;;;;;7.78;4.03;;;;;;;-7.13;65.04;93048.94;5112824;28;20114;-44
2021/01/17 00:23:15;;;;;;;9.27;4.83;;;;;;;-7.06;64.44;93045.22;5112807;28;20031;-41
2021/01/17 00:25:41;;;;;;;39.05;17.35;;;;;;;-7.03;63.89;93038.94;5112966;28;20260;-41
2021/01/17 00:28:06;;;;;;;32.78;13.82;;;;;;;-7.08;64.67;93042.25;5112671;28;20024;-40
2021/01/17 00:30:33;;;;;;;32.60;14.02;;;;;;;-7.23;65.47;93046.66;5112797;28;20046;-40
2021/01/17 00:33:00;;;;;;;16.38;8.55;;;;;;;-7.10;65.60;93056.06;5112728;28;20032;-40
2021/01/17 00:35:27;;;;;;;16.00;5.95;;;;;;;-7.35;64.32;93058.28;5112655;28;20431;-39
2021/01/17 00:37:55;;;;;;;11.60;5.72;;;;;;;-7.37;65.91;93053.38;5112633;28;20111;-39
2021/01/17 00:40:22;;;;;;;5.53;4.13;;;;;;;-7.22;65.21;93059.66;5112627;28;20061;-39
2021/01/17 00:42:48;;;;;;;10.48;5.38;;;;;;;-7.16;65.43;93049.06;5112487;28;20024;-39
2021/01/17 00:45:15;;;;;;;9.20;5.35;;;;;;;-7.12;65.14;93045.06;5111922;28;20027;-39
2021/01/17 00:47:47;;;;;;;10.63;5.43;;;;;;;-7.04;65.39;93045.50;5111350;28;20031;-39
2021/01/17 00:50:13;;;;;;;9.43;5.38;;;;;;;-7.05;65.11;93042.09;5112148;28;20501;-39
2021/01/17 00:52:39;;;;;;;12.70;5.68;;;;;;;-6.95;64.56;93042.81;5112263;28;20035;-40
2021/01/17 00:55:05;;;;;;;13.85;6.07;;;;;;;-7.03;63.89;93038.94;5112176;28;20015;-41
2021/01/17 00:57:30;;;;;;;14.15;6.93;;;;;;;-7.13;65.14;93042.81;5112278;28;20031;-40
2021/01/17 00:59:56;;;;;;;11.70;6.82;;;;;;;-7.14;66.67;93038.63;5112293;28;20034;-40
2021/01/17 01:02:21;;;;;;;11.68;6.28;;;;;;;-7.13;66.25;93037.47;5112129;28;20027;-40
2021/01/17 01:04:47;;;;;;;20.73;9.55;;;;;;;-6.99;66.65;93042.97;5112065;28;20500;-41
2021/01/17 01:07:12;;;;;;;25.58;13.65;;;;;;;-6.90;64.99;93047.59;5110937;28;20034;-41
2021/01/17 01:09:38;;;;;;;24.42;11.32;;;;;;;-7.14;65.48;93044.75;5111919;28;20039;-40
2021/01/17 01:12:04;;;;;;;19.80;10.10;;;;;;;-7.40;66.31;93048.88;5112105;28;20419;-41
2021/01/17 01:14:29;;;;;;;28.27;11.05;;;;;;;-7.22;65.78;93048.94;5111895;28;20024;-40
2021/01/17 01:16:55;;;;;;;21.80;8.60;;;;;;;-7.23;65.72;93054.72;5111997;28;20023;-40
2021/01/17 01:19:21;;;;;;;22.27;9.85;;;;;;;-7.24;66.51;93051.31;5112015;28;20023;-41
2021/01/17 01:21:46;;;;;;;19.23;7.97;;;;;;;-7.19;66.05;93049.97;5111856;28;20055;-41
2021/01/17 01:24:12;;;;;;;19.30;8.93;;;;;;;-7.14;65.81;93052.03;5111759;28;20031;-41
2021/01/17 01:26:40;;;;;;;18.23;9.40;;;;;;;-7.19;65.26;93041.94;5111754;28;20026;-41
2021/01/17 01:29:06;;;;;;;16.73;6.45;;;;;;;-7.39;64.85;93039.66;5111446;28;20044;-41
2021/01/17 01:31:31;;;;;;;12.80;5.70;;;;;;;-7.44;64.70;93048.28;5111773;28;20072;-40
2021/01/17 01:33:57;;;;;;;10.23;4.55;;;;;;;-7.51;64.30;93051.25;5111522;28;20076;-40
2021/01/17 01:36:23;;;;;;;8.68;4.07;;;;;;;-7.60;64.27;93048.53;5111772;28;20110;-39
2021/01/17 01:38:50;;;;;;;8.82;4.13;;;;;;;-7.69;64.08;93051.22;5111530;28;20036;-39
2021/01/17 01:41:17;;;;;;;10.93;5.15;;;;;;;-7.90;64.37;93043.97;5111326;28;20036;-39
2021/01/17 01:43:43;;;;;;;10.13;4.72;;;;;;;-7.93;64.10;93042.94;5111596;28;20515;-40
2021/01/17 01:46:13;;;;;;;12.88;6.80;;;;;;;-8.11;65.25;93037.50;5111492;28;20023;-39
2021/01/17 01:48:39;;;;;;;9.20;5.22;;;;;;;-8.39;65.93;93045.88;5111635;28;20504;-39
2021/01/17 01:51:05;;;;;;;18.15;5.75;;;;;;;-8.43;66.33;93035.31;5110186;28;20032;-40
2021/01/17 01:53:30;;;;;;;13.68;5.68;;;;;;;-8.37;66.67;93043.50;5110179;28;20502;-41
2021/01/17 01:55:59;;;;;;;7.05;4.38;;;;;;;-8.75;67.37;93036.44;5110111;28;20032;-41
2021/01/17 01:58:27;;;;;;;11.90;5.68;;;;;;;-8.91;67.56;93044.66;5110075;28;20106;-43
2021/01/17 02:00:52;;;;;;;10.48;5.57;;;;;;;-8.93;68.17;93048.94;5112661;28;20027;-40
2021/01/17 02:03:18;;;;;;;12.00;6.43;;;;;;;-9.14;68.65;93052.34;5115568;28;20400;-38
2021/01/17 02:05:47;;;;;;;17.70;8.10;;;;;;;-9.16;68.98;93041.34;5115616;28;20077;-38
2021/01/17 02:08:24;;;;;;;16.98;8.13;;;;;;;-8.94;68.29;93039.44;5115029;27;20104;-38
2021/01/17 02:10:50;;;;;;;24.35;10.95;;;;;;;-8.91;68.40;93033.97;5115477;28;20034;-38
2021/01/17 02:13:20;;;;;;;14.52;9.18;;;;;;;-8.96;68.33;93031.84;5115454;28;20023;-38
2021/01/17 02:15:47;;;;;;;19.02;9.13;;;;;;;-8.81;67.95;93037.44;5114431;28;20588;-39
2021/01/17 02:18:14;;;;;;;12.13;5.32;;;;;;;-8.70;67.37;93033.22;5115317;28;20127;-39
2021/01/17 02:20:39;;;;;;;11.50;6.13;;;;;;;-8.94;66.94;93034.09;5114032;28;20514;-39
2021/01/17 02:23:14;;;;;;;12.35;5.97;;;;;;;-9.13;66.59;93029.78;5114904;28;20103;-39
2021/01/17 02:25:43;;;;;;;11.57;5.82;;;;;;;-9.29;66.44;93025.34;5114155;28;20032;-41
2021/01/17 02:28:14;;;;;;;15.35;6.65;;;;;;;-9.52;66.70;93026.47;5115081;28;20027;-41
2021/01/17 02:30:47;;;;;;;35.78;16.35;;;;;;;-9.57;67.00;93032.38;5113904;28;20393;-39
2021/01/17 02:33:27;;;;;;;43.15;19.13;;;;;;;-9.63;67.14;93026.06;5115136;27;20035;-40
2021/01/17 02:36:16;;;;;;;19.50;9.35;;;;;;;-9.64;67.25;93027.28;5113879;28;20088;-41
2021/01/17 02:38:51;;;;;;;17.48;9.10;;;;;;;-9.73;67.35;93029.84;5114573;28;20035;-42
2021/01/17 02:41:24;;;;;;;13.45;6.72;;;;;;;-9.71;66.51;93032.09;5113639;28;20485;-40
2021/01/17 02:43:50;;;;;;;18.52;8.43;;;;;;;-9.87;67.04;93032.22;5113752;28;20108;-40
2021/01/17 02:46:17;;;;;;;30.40;13.95;;;;;;;-10.07;66.41;93030.50;5113656;28;20082;-40
2021/01/17 02:48:43;;;;;;;29.60;13.97;;;;;;;-10.10;66.80;93039.41;5114702;28;20156;-41
2021/01/17 02:51:08;;;;;;;16.85;7.93;;;;;;;-10.08;66.25;93039.72;5114761;27;20044;-41
2021/01/17 02:53:40;;;;;;;18.50;9.20;;;;;;;-10.13;65.72;93045.59;5114618;28;20015;-40
2021/01/17 02:56:09;;;;;;;10.15;5.50;;;;;;;-10.25;65.39;93040.28;5114592;27;20503;-40
2021/01/17 02:58:34;;;;;;;;;;;;;;;-10.43;65.11;93050.72;5113840;28;20035;-40
2021/01/17 03:01:00;;;;;;;3.08;2.60;;;;;;;-10.72;65.79;93056.13;5113367;28;19911;-40
2021/01/17 03:03:32;;;;;;;6.43;2.10;;;;;;;-10.80;65.52;93062.09;5113260;28;20035;-41
2021/01/17 03:06:00;;;;;;;2.15;1.92;;;;;;;-11.27;66.13;93051.91;5114605;28;20209;-40
2021/01/17 03:08:27;;;;;;;6.17;3.63;;;;;;;-11.30;68.05;93060.00;5113222;28;20042;-41
2021/01/17 03:10:52;;;;;;;9.68;5.63;;;;;;;-11.19;68.09;93061.19;5114401;28;20031;-42
2021/01/17 03:13:18;;;;;;;7.45;4.20;;;;;;;-11.12;69.01;93063.69;5114223;28;20046;-41
2021/01/17 03:15:44;;;;;;;9.75;3.50;;;;;;;-10.94;68.96;93063.22;5113039;28;20051;-41
2021/01/17 03:18:09;;;;;;;14.32;7.75;;;;;;;-10.76;68.55;93062.72;5114341;28;20019;-42
2021/01/17 03:20:34;;;;;;;19.48;10.13;;;;;;;-10.55;67.85;93062.88;5114141;28;20036;-44
2021/01/17 03:23:00;;;;;;;15.55;8.07;;;;;;;-10.61;67.15;93051.22;5113989;28;20469;-40
2021/01/17 03:25:25;;;;;;;12.18;5.85;;;;;;;-10.78;67.89;93047.13;5114070;28;20034;-39
2021/01/17 03:27:51;;;;;;;12.48;4.70;;;;;;;-10.68;68.80;93053.34;5114117;28;20084;-39
2021/01/17 03:30:17;;;;;;;24.45;10.88;;;;;;;-10.57;69.33;93048.47;5113834;28;20062;-39
2021/01/17 03:32:42;;;;;;;32.53;12.20;;;;;;;-10.87;67.51;93057.69;5113846;28;20038;-39
2021/01/17 03:35:09;;;;;;;21.80;10.10;;;;;;;-11.16;68.08;93057.69;5113758;28;20035;-40
2021/01/17 03:37:34;;;;;;;17.17;11.38;;;;;;;-11.32;69.47;93049.72;5112431;28;20039;-39
2021/01/17 03:39:59;;;;;;;25.58;12.27;;;;;;;-11.09;68.81;93040.78;5113855;28;20027;-40
2021/01/17 03:42:25;;;;;;;17.05;8.50;;;;;;;-10.89;67.30;93031.44;5113766;28;20034;-39
2021/01/17 03:44:50;;;;;;;14.18;7.32;;;;;;;-10.67;66.69;93042.25;5113650;28;20452;-39
2021/01/17 03:47:16;;;;;;;29.73;12.02;;;;;;;-10.85;66.79;93042.75;5113659;28;20035;-40
2021/01/17 03:49:41;;;;;;;19.05;7.38;;;;;;;-10.83;66.07;93034.34;5113549;28;20028;-39
2021/01/17 03:52:07;;;;;;;18.77;8.73;;;;;;;-11.14;65.83;93036.69;5113521;28;20480;-40
2021/01/17 03:54:32;;;;;;;19.13;11.93;;;;;;;-11.15;66.16;93034.47;5113486;28;20385;-38
2021/01/17 03:56:58;;;;;;;18.48;9.55;;;;;;;-11.42;66.06;93034.78;5113533;28;20059;-39
2021/01/17 03:59:23;;;;;;;9.48;6.13;;;;;;;-11.33;65.87;93034.19;5113277;28;20040;-39
2021/01/17 04:01:49;;;;;;;16.20;8.02;;;;;;;-11.38;66.64;93042.66;5113395;28;20019;-39
2021/01/17 04:04:18;;;;;;;12.77;5.53;;;;;;;-11.44;67.37;93047.03;5113355;28;20503;-39
2021/01/17 04:06:43;;;;;;;28.00;13.13;;;;;;;-11.44;67.64;93050.44;5113134;28;20035;-40
2021/01/17 04:09:08;;;;;;;10.20;6.80;;;;;;;-11.24;65.86;93051.03;5113309;28;20031;-39
2021/01/17 04:11:34;;;;;;;17.13;9.07;;;;;;;-11.44;65.30;93063.00;5113070;28;20042;-39
2021/01/17 04:13:59;;;;;;;28.15;9.93;;;;;;;-11.28;66.12;93055.72;5113144;28;20048;-40
2021/01/17 04:16:25;;;;;;;20.42;10.35;;;;;;;-11.19;65.51;93058.53;5113073;28;20028;-40
2021/01/17 04:18:50;;;;;;;22.85;11.55;;;;;;;-11.09;65.46;93057.53;5113155;28;20484;-40
2021/01/17 04:21:16;;;;;;;18.25;9.15;;;;;;;-11.34;65.51;93065.38;5113062;28;20023;-38
2021/01/17 04:23:41;;;;;;;26.15;8.32;;;;;;;-11.22;65.40;93064.72;5112271;28;20110;-39
2021/01/17 04:26:07;;;;;;;17.30;7.80;;;;;;;-11.35;65.96;93069.25;5112722;28;20476;-39
2021/01/17 04:28:32;;;;;;;13.30;7.05;;;;;;;-11.26;65.15;93073.97;5112496;28;20058;-39
2021/01/17 04:30:58;;;;;;;10.90;5.60;;;;;;;-11.34;65.02;93068.06;5112773;28;20059;-40
2021/01/17 04:33:23;;;;;;;9.27;5.55;;;;;;;-11.32;66.95;93079.03;5112695;28;20019;-39
2021/01/17 04:35:49;;;;;;;35.45;13.45;;;;;;;-11.36;66.42;93078.38;5112619;28;20415;-39
2021/01/17 04:38:15;;;;;;;11.50;5.25;;;;;;;-11.44;64.27;93071.00;5112500;28;20519;-40
2021/01/17 04:40:41;;;;;;;7.80;4.75;;;;;;;-11.42;62.84;93077.41;5112424;28;20055;-39
2021/01/17 04:43:28;;;;;;;16.48;7.03;;;;;;;-11.36;63.14;93082.94;5112450;28;20036;-39
2021/01/17 04:45:54;;;;;;;9.35;3.25;;;;;;;-11.46;62.52;93079.41;5112305;28;20496;-38
2021/01/17 04:48:20;;;;;;;8.60;3.60;;;;;;;-11.54;62.78;93086.06;5109635;28;20115;-39
2021/01/17 04:50:46;;;;;;;8.18;4.55;;;;;;;-11.52;63.76;93088.31;5112198;28;20038;-38
2021/01/17 04:53:12;;;;;;;15.30;8.77;;;;;;;-11.63;63.69;93088.59;5104571;28;20471;-38
2021/01/17 04:55:38;;;;;;;12.15;8.18;;;;;;;-11.67;64.38;93095.91;5102398;28;20110;-38
2021/01/17 04:58:17;;;;;;;14.30;6.82;;;;;;;-11.67;64.25;93090.59;5112335;28;20019;-38
2021/01/17 05:00:48;;;;;;;13.48;7.03;;;;;;;-11.65;64.29;93091.66;5112214;28;20059;-39
2021/01/17 05:03:53;;;;;;;9.50;5.55;;;;;;;-11.50;64.14;93091.31;5112246;28;20028;-38
2021/01/17 05:06:25;;;;;;;20.27;6.18;;;;;;;-11.56;64.89;93098.31;5112050;28;20034;-38
2021/01/17 05:09:05;;;;;;;10.07;4.03;;;;;;;-11.75;64.67;93095.34;5112174;27;20035;-39
2021/01/17 05:11:42;;;;;;;24.17;10.82;;;;;;;-11.98;63.29;93100.84;5111883;28;20088;-37
2021/01/17 05:14:14;;;;;;;17.42;8.52;;;;;;;-12.15;64.15;93101.22;5112097;28;20096;-38
2021/01/17 05:16:44;;;;;;;8.77;4.30;;;;;;;-12.33;64.89;93096.28;5112125;28;20031;-38
2021/01/17 05:19:11;;;;;;;26.52;15.15;;;;;;;-12.25;65.25;93105.59;5111786;28;20098;-39
2021/01/17 05:21:38;;;;;;;13.68;7.55;;;;;;;-12.06;64.81;93104.81;5112007;28;20028;-39
2021/01/17 05:24:09;;;;;;;27.27;13.27;;;;;;;-12.10;65.09;93101.47;5111898;28;20023;-38
2021/01/17 05:26:39;;;;;;;14.57;7.53;;;;;;;-12.08;64.92;93101.06;5111827;28;20036;-39
2021/01/17 05:29:05;;;;;;;25.73;8.20;;;;;;;-12.09;66.25;93099.56;5111512;28;20055;-39
2021/01/17 05:31:30;;;;;;;11.40;6.18;;;;;;;-12.29;65.50;93077.59;5111649;28;20075;-38
2021/01/17 05:33:57;;;;;;;16.15;8.38;;;;;;;-12.15;65.26;93091.34;5111602;28;20057;-39
2021/01/17 05:36:23;;;;;;;19.77;8.95;;;;;;;-12.06;64.39;93088.09;5110799;28;20507;-39
2021/01/17 05:38:59;;;;;;;16.75;8.48;;;;;;;-12.23;63.91;93074.03;5111750;28;20063;-39
2021/01/17 05:41:25;;;;;;;12.40;6.45;;;;;;;-12.16;64.20;93097.06;5111566;28;20423;-40
2021/01/17 05:43:50;;;;;;;11.25;7.47;;;;;;;-12.24;65.34;93090.41;5111537;28;20126;-39
2021/01/17 05:46:17;;;;;;;7.60;5.47;;;;;;;-12.15;65.17;93094.00;5111496;28;20031;-39
2021/01/17 05:48:42;;;;;;;11.65;5.25;;;;;;;-12.19;65.19;93097.91;5111486;28;20051;-39
2021/01/17 05:51:08;;;;;;;17.02;7.45;;;;;;;-12.08;64.46;93095.75;5111199;28;20051;-39
2021/01/17 05:53:33;;;;;;;13.15;6.25;;;;;;;-12.21;65.05;93086.94;5111309;28;20031;-39
2021/01/17 05:56:00;;;;;;;14.32;6.82;;;;;;;-12.07;64.98;93075.94;5111492;28;20027;-38
2021/01/17 05:58:32;;;;;;;16.85;7.75;;;;;;;-12.03;64.20;93079.28;5108987;28;20477;-39
2021/01/17 06:00:59;;;;;;;12.60;5.88;;;;;;;-12.08;65.36;93074.47;5111268;28;20030;-38
2021/01/17 06:03:35;;;;;;;15.45;7.80;;;;;;;-12.15;65.21;93083.38;5111437;28;20024;-38
2021/01/17 06:06:05;;;;;;;15.77;7.25;;;;;;;-12.09;64.91;93084.34;5110159;28;20039;-38
2021/01/17 06:08:31;;;;;;;14.38;10.02;;;;;;;-12.00;65.03;93091.75;5111364;28;20039;-38
2021/01/17 06:11:09;;;;;;;40.35;15.30;;;;;;;-12.08;64.14;93077.84;5111163;28;20019;-39
2021/01/17 06:13:40;;;;;;;26.33;9.55;;;;;;;-11.99;65.00;93087.94;5111397;28;20469;-38
2021/01/17 06:16:32;;;;;;;20.15;9.00;;;;;;;-12.01;63.62;93092.91;5110895;28;20393;-39
2021/01/17 06:19:03;;;;;;;40.47;15.57;;;;;;;-12.28;63.57;93098.47;5110100;28;20107;-38
2021/01/17 06:21:30;;;;;;;17.50;9.82;;;;;;;-12.19;64.05;93103.94;5111229;28;20565;-43
2021/01/17 06:24:04;;;;;;;19.83;9.00;;;;;;;-12.07;63.17;93115.88;5092598;28;20036;-40
2021/01/17 06:26:31;;;;;;;30.23;12.60;;;;;;;-12.15;63.52;93112.63;5090862;28;20061;-42
2021/01/17 06:28:58;;;;;;;21.25;10.30;;;;;;;-12.19;63.30;93117.25;5090667;28;20059;-40
2021/01/17 06:31:29;;;;;;;28.55;12.68;;;;;;;-12.28;63.94;93114.44;5090463;28;20048;-39
2021/01/17 06:34:07;;;;;;;25.95;12.88;;;;;;;-12.31;64.30;93114.47;5090697;28;20032;-38
2021/01/17 06:36:33;;;;;;;22.73;9.70;;;;;;;-12.17;63.52;93111.53;5090775;28;20120;-41
2021/01/17 06:38:59;;;;;;;11.93;5.88;;;;;;;-12.20;62.51;93115.00;5090799;28;20497;-40
2021/01/17 06:41:39;;;;;;;14.07;8.13;;;;;;;-12.13;62.64;93110.28;5090576;28;20026;-40
2021/01/17 06:44:13;;;;;;;12.35;7.95;;;;;;;-12.07;62.16;93113.22;5090458;28;20507;-40
2021/01/17 06:46:44;;;;;;;9.63;6.03;;;;;;;-12.28;63.34;93114.44;5091536;28;20028;-39
2021/01/17 06:49:20;;;;;;;16.52;7.95;;;;;;;-12.39;63.32;93121.13;5101533;28;20093;-39
2021/01/17 06:51:47;;;;;;;11.60;5.68;;;;;;;-12.20;62.75;93112.34;5101758;28;20032;-40
2021/01/17 06:54:19;;;;;;;10.77;4.78;;;;;;;-12.18;63.55;93115.34;5100617;28;20028;-39
2021/01/17 06:56:46;;;;;;;19.50;11.18;;;;;;;-12.08;63.78;93112.44;5094269;28;20016;-39
2021/01/17 06:59:30;;;;;;;24.55;9.63;;;;;;;-11.95;63.83;93115.22;5094313;28;20023;-39
2021/01/17 07:02:15;;;;;;;14.60;7.13;;;;;;;-11.69;63.95;93106.22;5094249;28;20016;-39
2021/01/17 07:04:52;;;;;;;57.10;30.52;;;;;;;-11.51;64.48;93116.44;5094137;28;20088;-39
2021/01/17 07:07:36;;;;;;;22.67;12.13;;;;;;;-11.29;65.11;93115.50;5093410;28;20032;-39
2021/01/17 07:10:04;;;;;;;17.00;11.93;;;;;;;-11.05;63.43;93116.81;5093701;28;20470;-39
2021/01/17 07:12:44;;;;;;;25.70;12.60;;;;;;;-10.78;62.75;93111.13;5092687;28;20055;-39
2021/01/17 07:15:11;;;;;;;24.33;13.88;;;;;;;-10.57;62.86;93112.47;5093963;28;20032;-40
2021/01/17 07:17:41;;;;;;;33.22;14.95;;;;;;;-10.64;63.02;93120.66;5093795;28;20077;-41
2021/01/17 07:20:11;;;;;;;19.30;9.18;;;;;;;-10.99;64.07;93117.03;5093794;28;20028;-42
2021/01/17 07:22:37;;;;;;;16.95;10.32;;;;;;;-10.75;64.69;93112.22;5093752;28;20015;-38
2021/01/17 07:25:06;;;;;;;16.98;11.07;;;;;;;-10.46;64.30;93113.66;5093690;28;20123;-38
2021/01/17 07:27:37;;;;;;;24.77;13.77;;;;;;;-10.01;63.70;93118.09;5093666;28;20028;-38
2021/01/17 07:30:04;;;;;;;19.65;12.07;;;;;;;-9.51;62.29;93116.16;5093411;28;20131;-38
2021/01/17 07:32:35;;;;;;;15.80;10.07;;;;;;;-8.74;60.78;93117.44;5093552;28;20039;-39
2021/01/17 07:35:11;;;;;;;20.48;10.43;;;;;;;-7.97;59.36;93106.59;5093655;28;20037;-39
2021/01/17 07:37:42;;;;;;;19.80;10.50;;;;;;;-7.06;55.96;93101.56;5092275;28;20462;-39
2021/01/17 07:40:09;;;;;;;26.40;13.40;;;;;;;-6.42;54.17;93096.94;5093604;28;20032;-39
2021/01/17 07:42:37;;;;;;;19.52;11.95;;;;;;;-6.11;53.29;93100.19;5093395;28;20053;-39
2021/01/17 07:45:32;;;;;;;19.30;11.90;;;;;;;-5.55;51.36;93105.69;5093304;28;20032;-41
2021/01/17 07:48:06;;;;;;;22.67;13.65;;;;;;;-5.09;49.72;93092.00;5092235;28;20052;-39
2021/01/17 07:50:37;;;;;;;22.15;11.30;;;;;;;-4.40;48.28;93105.13;5093336;28;20043;-41
2021/01/17 07:53:06;;;;;;;14.15;8.70;;;;;;;-3.72;46.77;93098.50;5093020;28;20032;-40
2021/01/17 07:55:39;;;;;;;;;;;;;;;-3.40;45.59;93104.91;5093756;28;20093;-40
2021/01/17 07:58:06;;;;;;;15.00;8.85;;;;;;;-3.30;44.88;93104.31;5092255;28;19919;-39
2021/01/17 08:00:32;;;;;;;15.15;8.00;;;;;;;-2.91;44.68;93104.13;5091779;28;20032;-39
2021/01/17 08:02:57;;;;;;;15.68;8.02;;;;;;;-3.03;44.22;93105.19;5091649;28;20120;-40
2021/01/17 08:05:47;;;;;;;15.95;8.50;;;;;;;-2.65;44.48;93104.94;5092956;28;20032;-40
2021/01/17 08:08:45;;;;;;;22.30;10.07;;;;;;;-0.79;41.37;93098.31;5092973;28;20133;-39
2021/01/17 08:11:40;;;;;;;14.32;8.27;;;;;;;0.55;38.31;93106.41;5092943;28;20133;-41
2021/01/17 08:14:19;;;;;;;17.55;9.13;;;;;;;2.13;36.76;93093.47;5092806;28;20035;-41
2021/01/17 08:17:21;;;;;;;22.67;11.45;;;;;;;3.07;33.97;93101.72;5091379;28;20504;-40
2021/01/17 08:19:56;;;;;;;14.27;7.93;;;;;;;3.50;32.57;93103.84;5092584;28;20028;-41
2021/01/17 08:22:21;;;;;;;16.67;8.15;;;;;;;3.70;31.99;93108.84;5091892;28;20036;-42
2021/01/17 08:24:59;;;;;;;12.93;8.27;;;;;;;4.23;30.74;93109.97;5092215;28;20485;-42
2021/01/17 08:27:32;;;;;;;11.63;7.13;;;;;;;4.27;30.81;93119.34;5094801;28;20027;-41
2021/01/17 08:30:00;;;;;;;12.68;6.97;;;;;;;5.00;29.79;93119.09;5093360;28;20056;-44
2021/01/17 08:32:35;;;;;;;15.57;8.23;;;;;;;4.76;29.86;93117.22;5105715;28;20448;-40
2021/01/17 08:35:18;;;;;;;14.27;7.90;;;;;;;5.37;29.40;93119.72;5107276;28;20035;-42
2021/01/17 08:37:51;;;;;;;11.63;6.57;;;;;;;6.13;28.41;93128.38;5112216;28;20055;-41
2021/01/17 08:40:29;;;;;;;16.83;9.63;;;;;;;6.23;27.58;93121.94;5112006;28;20126;-40
2021/01/17 08:43:12;;;;;;;13.02;7.13;;;;;;;6.73;27.23;93120.91;5112351;28;20024;-43
2021/01/17 08:45:43;;;;;;;15.85;9.05;;;;;;;7.47;25.54;93119.44;5112135;28;20027;-43
2021/01/17 08:48:17;;;;;;;16.50;8.88;;;;;;;7.79;25.82;93125.38;5112081;28;20092;-43
2021/01/17 08:50:56;;;;;;;13.30;7.10;;;;;;;8.10;24.96;93116.06;5102727;28;20034;-46
2021/01/17 08:53:35;;;;;;;;;;;;;;;8.49;23.69;93117.75;5099509;28;20027;-40
2021/01/17 08:56:10;;;;;;;13.63;7.80;;;;;;;8.67;23.65;93122.25;5100181;28;19939;-43
2021/01/17 08:58:36;;;;;;;12.00;6.55;;;;;;;6.84;24.48;93128.91;5100774;28;20023;-43
2021/01/17 09:01:04;;;;;;;8.80;5.85;;;;;;;5.61;26.21;93121.56;5102197;28;20111;-44
2021/01/17 09:03:29;;;;;;;10.32;5.57;;;;;;;5.84;26.93;93130.91;5109538;28;20035;-43
2021/01/17 09:05:57;;;;;;;8.60;5.35;;;;;;;6.13;26.66;93121.63;5111913;28;20181;-45
2021/01/17 09:08:25;;;;;;;12.43;7.47;;;;;;;5.39;27.11;93119.94;5111770;28;20120;-44
2021/01/17 09:10:51;;;;;;;9.27;6.63;;;;;;;6.15;27.61;93123.81;5111461;28;20034;-45
2021/01/17 09:13:23;;;;;;;8.40;6.00;;;;;;;6.83;26.46;93117.19;5110522;28;20036;-44
2021/01/17 09:16:08;;;;;;;10.35;6.10;;;;;;;7.01;26.82;93115.53;5111759;28;20109;-43
2021/01/17 09:18:35;;;;;;;14.10;7.72;;;;;;;8.21;26.41;93112.25;5111531;28;20168;-43
2021/01/17 09:21:01;;;;;;;17.45;9.32;;;;;;;8.88;24.66;93106.34;5111304;28;20051;-44
2021/01/17 09:23:27;;;;;;;11.75;7.78;;;;;;;8.71;23.42;93106.13;5111514;28;20034;-44
2021/01/17 09:26:00;;;;;;;20.42;9.65;;;;;;;7.58;24.79;93110.91;5111519;28;20440;-45
2021/01/17 09:28:27;;;;;;;14.77;8.50;;;;;;;5.89;27.12;93108.13;5111221;28;20050;-45
2021/01/17 09:31:08;;;;;;;22.70;11.02;;;;;;;4.45;29.76;93098.75;5111215;28;20023;-43
2021/01/17 09:33:37;;;;;;;19.85;10.73;;;;;;;3.69;30.36;93101.91;5111404;28;20521;-43
2021/01/17 09:36:07;;;;;;;14.00;7.80;;;;;;;2.02;32.69;93109.84;5110033;28;20034;-44
2021/01/17 09:38:38;;;;;;;18.13;9.30;;;;;;;1.56;36.27;93110.50;5110685;28;20023;-43
2021/01/17 09:41:04;;;;;;;25.20;11.85;;;;;;;2.44;35.38;93097.75;5111055;28;20050;-44
2021/01/17 09:43:29;;;;;;;22.52;12.85;;;;;;;2.96;34.55;93098.38;5111161;28;20027;-44
2021/01/17 09:45:59;;;;;;;15.57;8.05;;;;;;;3.87;32.42;93084.81;5109955;28;20023;-45
2021/01/17 09:48:25;;;;;;;20.27;11.73;;;;;;;5.09;30.71;93086.59;5111151;28;20020;-44
2021/01/17 09:50:55;;;;;;;14.40;8.85;;;;;;;6.50;29.34;93079.50;5096197;28;20031;-43
2021/01/17 09:53:21;;;;;;;15.05;8.40;;;;;;;5.91;29.50;93083.69;5090803;28;20467;-43
2021/01/17 09:55:47;;;;;;;14.48;7.88;;;;;;;4.86;30.27;93079.25;5093306;28;20142;-43
2021/01/17 09:58:19;;;;;;;20.92;10.50;;;;;;;3.50;33.92;93074.56;5108859;28;20407;-42
2021/01/17 10:00:44;;;;;;;19.15;10.98;;;;;;;2.79;35.91;93068.53;5097572;28;20035;-43
2021/01/17 10:03:15;;;;;;;15.38;8.43;;;;;;;1.96;37.24;93071.75;5098575;28;20480;-42
2021/01/17 10:05:43;;;;;;;17.50;8.38;;;;;;;1.42;38.08;93071.47;5109719;28;20136;-42
2021/01/17 10:08:11;;;;;;;17.27;8.52;;;;;;;1.00;38.64;93063.66;5102478;28;20027;-42
2021/01/17 10:10:48;;;;;;;13.40;8.27;;;;;;;0.50;40.75;93057.50;5098707;28;20035;-41
2021/01/17 10:13:14;;;;;;;15.77;8.35;;;;;;;0.44;40.50;93059.47;5094265;28;20477;-42
2021/01/17 10:15:40;;;;;;;18.85;8.98;;;;;;;0.17;42.11;93046.63;5101125;28;20030;-42
2021/01/17 10:18:06;;;;;;;16.23;8.30;;;;;;;0.17;42.31;93046.63;5099320;28;20031;-42
2021/01/17 10:20:38;;;;;;;14.02;8.63;;;;;;;-0.07;42.37;93047.06;5100030;28;20035;-43
2021/01/17 10:23:16;;;;;;;23.52;10.40;;;;;;;-0.32;44.65;93043.28;5101178;28;20031;-43
2021/01/17 10:25:49;;;;;;;18.77;9.15;;;;;;;-0.47;43.97;93048.16;5094536;28;20063;-43
2021/01/17 10:28:16;;;;;;;15.82;7.90;;;;;;;-0.27;43.82;93039.13;5094018;28;20038;-43
2021/01/17 10:30:43;;;;;;;17.88;9.18;;;;;;;-0.42;43.71;93039.31;5094427;28;20020;-41
2021/01/17 10:33:10;;;;;;;17.60;7.80;;;;;;;-0.48;43.44;93038.56;5092633;28;20036;-41
2021/01/17 10:35:38;;;;;;;28.80;11.15;;;;;;;-0.38;43.14;93026.28;5092284;28;20111;-42
2021/01/17 10:38:09;;;;;;;19.67;9.20;;;;;;;-0.09;43.80;93031.25;5093453;28;20081;-43
2021/01/17 10:40:38;;;;;;;12.65;7.55;;;;;;;0.56;41.44;93018.22;5093321;28;20036;-43
2021/01/17 10:43:24;;;;;;;13.65;6.10;;;;;;;0.64;40.53;93026.63;5093382;28;20032;-42
2021/01/17 10:46:00;;;;;;;34.67;11.38;;;;;;;0.34;40.06;93029.13;5091522;28;20151;-42
2021/01/17 10:48:29;;;;;;;17.80;7.90;;;;;;;0.22;41.38;93019.47;5093686;28;20032;-44
2021/01/17 10:50:59;;;;;;;17.95;8.63;;;;;;;0.26;40.54;93025.38;5092204;28;20112;-42
2021/01/17 10:53:49;;;;;;;11.23;5.97;;;;;;;-0.10;40.46;93031.75;5092616;28;20123;-41
2021/01/17 10:56:19;;;;;;;15.98;7.80;;;;;;;-0.22;40.93;93022.84;5092565;28;20027;-43
2021/01/17 10:58:53;;;;;;;17.20;10.10;;;;;;;-0.28;42.94;93026.81;5092384;28;20043;-42
2021/01/17 11:01:29;;;;;;;10.73;5.65;;;;;;;-0.14;42.49;93028.53;5092466;28;20020;-44
2021/01/17 11:03:56;;;;;;;14.02;6.95;;;;;;;-0.32;41.55;93024.31;5093423;28;20224;-42
2021/01/17 11:06:27;;;;;;;10.90;5.60;;;;;;;-0.37;40.90;93021.59;5092325;28;20128;-42
2021/01/17 11:08:57;;;;;;;9.23;4.95;;;;;;;-0.58;41.05;93025.69;5093394;28;20027;-42
2021/01/17 11:11:29;;;;;;;9.82;5.80;;;;;;;-0.74;42.09;93019.00;5092178;28;20043;-41
2021/01/17 11:14:03;;;;;;;13.20;6.05;;;;;;;-0.93;42.97;93018.66;5099199;28;20031;-41
2021/01/17 11:16:48;;;;;;;10.75;4.90;;;;;;;-0.82;43.36;93015.25;5104666;28;20088;-42
2021/01/17 11:19:16;;;;;;;9.32;4.90;;;;;;;-0.48;42.51;93019.59;5113705;28;20023;-42
2021/01/17 11:21:43;;;;;;;10.32;6.30;;;;;;;-0.58;42.43;93009.41;5113686;28;20460;-44
2021/01/17 11:24:13;;;;;;;8.93;4.97;;;;;;;-0.59;42.20;93014.13;5113558;28;20043;-42
2021/01/17 11:26:39;;;;;;;13.43;4.85;;;;;;;-0.56;42.16;93012.41;5113518;28;20023;-42
2021/01/17 11:29:17;;;;;;;13.82;5.03;;;;;;;-0.43;43.34;93004.53;5113429;28;20044;-42
2021/01/17 11:31:47;;;;;;;10.83;5.93;;;;;;;-0.57;42.90;93011.66;5112170;28;20028;-42
2021/01/17 11:34:21;;;;;;;8.40;5.57;;;;;;;-0.65;43.38;93009.91;5112174;28;20261;-42
2021/01/17 11:36:56;;;;;;;8.07;4.65;;;;;;;-0.98;43.92;93002.38;5113464;28;20126;-42